<?xml version="1.0" encoding="utf-8"?>
<gpx xmlns:xsi="http://www.w3.org/2001/XMLSchema-instance" xmlns:xsd="http://www.w3.org/2001/XMLSchema" version="1.1" creator="Shapelink.com" xmlns="http://www.topografix.com/GPX/1/1" xmlns:gpxtpx="http://www.garmin.com/xmlschemas/TrackPointExtension/v1">
  <metadata>
    <name>Löpning 5.44 km, 2019-09-28</name>
    <desc></desc>
    <author><name>Henrik Staffas</name></author> 
    <time>2019-09-28T10:59:47Z</time>
  </metadata>
  <trk>
    <name>Löpning 5.44 km, 2019-09-28</name>
    <trkseg>
      <trkpt lat="59.451037977001" lon="17.969525921444">
        <ele>24.4</ele>
        <time>2019-09-28T10:59:47Z</time>
      </trkpt>
      <trkpt lat="59.450876960702" lon="17.969608986073">
        <ele>25.6</ele>
        <time>2019-09-28T10:59:53Z</time>
      </trkpt>
      <trkpt lat="59.450836476125" lon="17.96964779427">
        <ele>26.4</ele>
        <time>2019-09-28T10:59:55Z</time>
      </trkpt>
      <trkpt lat="59.450821472524" lon="17.969668916658">
        <ele>26.8</ele>
        <time>2019-09-28T10:59:56Z</time>
      </trkpt>
      <trkpt lat="59.450792974064" lon="17.969719794791">
        <ele>27.6</ele>
        <time>2019-09-28T10:59:58Z</time>
      </trkpt>
      <trkpt lat="59.450782245232" lon="17.96974670069">
        <ele>28</ele>
        <time>2019-09-28T10:59:59Z</time>
      </trkpt>
      <trkpt lat="59.450775288255" lon="17.969781653213">
        <ele>28.4</ele>
        <time>2019-09-28T11:00:00Z</time>
      </trkpt>
      <trkpt lat="59.450755758428" lon="17.969881481642">
        <ele>29.2</ele>
        <time>2019-09-28T11:00:03Z</time>
      </trkpt>
      <trkpt lat="59.450720722086" lon="17.97003671443">
        <ele>30.6</ele>
        <time>2019-09-28T11:00:07Z</time>
      </trkpt>
      <trkpt lat="59.450698426232" lon="17.970162359111">
        <ele>31.8</ele>
        <time>2019-09-28T11:00:10Z</time>
      </trkpt>
      <trkpt lat="59.45068937378" lon="17.970258415685">
        <ele>32.6</ele>
        <time>2019-09-28T11:00:12Z</time>
      </trkpt>
      <trkpt lat="59.450685015192" lon="17.970312227483">
        <ele>32.8</ele>
        <time>2019-09-28T11:00:13Z</time>
      </trkpt>
      <trkpt lat="59.45062734772" lon="17.970547842692">
        <ele>33.6</ele>
        <time>2019-09-28T11:00:18Z</time>
      </trkpt>
      <trkpt lat="59.4504865318" lon="17.970834587491">
        <ele>33</ele>
        <time>2019-09-28T11:00:24Z</time>
      </trkpt>
      <trkpt lat="59.450351164115" lon="17.971081685903">
        <ele>32.4</ele>
        <time>2019-09-28T11:00:30Z</time>
      </trkpt>
      <trkpt lat="59.450208839453" lon="17.971360551716">
        <ele>32.2</ele>
        <time>2019-09-28T11:00:37Z</time>
      </trkpt>
      <trkpt lat="59.45013365381" lon="17.97163262819">
        <ele>32.6</ele>
        <time>2019-09-28T11:00:43Z</time>
      </trkpt>
      <trkpt lat="59.450121332417" lon="17.971689876567">
        <ele>32.6</ele>
        <time>2019-09-28T11:00:45Z</time>
      </trkpt>
      <trkpt lat="59.450106244997" lon="17.971757350862">
        <ele>33</ele>
        <time>2019-09-28T11:00:47Z</time>
      </trkpt>
      <trkpt lat="59.450081769849" lon="17.971839996396">
        <ele>33.4</ele>
        <time>2019-09-28T11:00:50Z</time>
      </trkpt>
      <trkpt lat="59.450026197852" lon="17.971987098741">
        <ele>33.8</ele>
        <time>2019-09-28T11:00:54Z</time>
      </trkpt>
      <trkpt lat="59.449950593114" lon="17.97214727685">
        <ele>33.8</ele>
        <time>2019-09-28T11:00:58Z</time>
      </trkpt>
      <trkpt lat="59.449859984775" lon="17.972504513428">
        <ele>33</ele>
        <time>2019-09-28T11:01:04Z</time>
      </trkpt>
      <trkpt lat="59.449848333934" lon="17.972572155361">
        <ele>32.8</ele>
        <time>2019-09-28T11:01:05Z</time>
      </trkpt>
      <trkpt lat="59.449787648978" lon="17.972969205964">
        <ele>32.2</ele>
        <time>2019-09-28T11:01:11Z</time>
      </trkpt>
      <trkpt lat="59.449736016474" lon="17.973362903807">
        <ele>32</ele>
        <time>2019-09-28T11:01:16Z</time>
      </trkpt>
      <trkpt lat="59.449732663714" lon="17.973521237898">
        <ele>31.8</ele>
        <time>2019-09-28T11:01:18Z</time>
      </trkpt>
      <trkpt lat="59.449753199369" lon="17.97387981558">
        <ele>31.2</ele>
        <time>2019-09-28T11:01:24Z</time>
      </trkpt>
      <trkpt lat="59.449767280961" lon="17.974071509633">
        <ele>30.8</ele>
        <time>2019-09-28T11:01:28Z</time>
      </trkpt>
      <trkpt lat="59.449774154119" lon="17.974120040834">
        <ele>30.8</ele>
        <time>2019-09-28T11:01:29Z</time>
      </trkpt>
      <trkpt lat="59.44981095066" lon="17.974476355403">
        <ele>30.2</ele>
        <time>2019-09-28T11:01:36Z</time>
      </trkpt>
      <trkpt lat="59.449802736398" lon="17.974528071726">
        <ele>30.2</ele>
        <time>2019-09-28T11:01:37Z</time>
      </trkpt>
      <trkpt lat="59.449715397" lon="17.974875250024">
        <ele>29.6</ele>
        <time>2019-09-28T11:01:45Z</time>
      </trkpt>
      <trkpt lat="59.449706428367" lon="17.974937108446">
        <ele>29.4</ele>
        <time>2019-09-28T11:01:46Z</time>
      </trkpt>
      <trkpt lat="59.44968019302" lon="17.97515302619">
        <ele>28.6</ele>
        <time>2019-09-28T11:01:50Z</time>
      </trkpt>
      <trkpt lat="59.449644234669" lon="17.975373051065">
        <ele>28.4</ele>
        <time>2019-09-28T11:01:55Z</time>
      </trkpt>
      <trkpt lat="59.449661920478" lon="17.975768173831">
        <ele>28.6</ele>
        <time>2019-09-28T11:02:04Z</time>
      </trkpt>
      <trkpt lat="59.44967600207" lon="17.976132115929">
        <ele>28.6</ele>
        <time>2019-09-28T11:02:08Z</time>
      </trkpt>
      <trkpt lat="59.449647000696" lon="17.976542577572">
        <ele>28.4</ele>
        <time>2019-09-28T11:02:15Z</time>
      </trkpt>
      <trkpt lat="59.449616742037" lon="17.976909704792">
        <ele>28.2</ele>
        <time>2019-09-28T11:02:20Z</time>
      </trkpt>
      <trkpt lat="59.449586902473" lon="17.977241544213">
        <ele>27.6</ele>
        <time>2019-09-28T11:02:26Z</time>
      </trkpt>
      <trkpt lat="59.449554967434" lon="17.977599451343">
        <ele>27.6</ele>
        <time>2019-09-28T11:02:32Z</time>
      </trkpt>
      <trkpt lat="59.449552871959" lon="17.977666171267">
        <ele>28</ele>
        <time>2019-09-28T11:02:34Z</time>
      </trkpt>
      <trkpt lat="59.449543316593" lon="17.977754600312">
        <ele>28.4</ele>
        <time>2019-09-28T11:02:36Z</time>
      </trkpt>
      <trkpt lat="59.449538287453" lon="17.97778913374">
        <ele>28.6</ele>
        <time>2019-09-28T11:02:37Z</time>
      </trkpt>
      <trkpt lat="59.449531079019" lon="17.977835569466">
        <ele>28.6</ele>
        <time>2019-09-28T11:02:38Z</time>
      </trkpt>
      <trkpt lat="59.449427562554" lon="17.978166654516">
        <ele>27.6</ele>
        <time>2019-09-28T11:02:46Z</time>
      </trkpt>
      <trkpt lat="59.449400908112" lon="17.978191800216">
        <ele>27.6</ele>
        <time>2019-09-28T11:02:47Z</time>
      </trkpt>
      <trkpt lat="59.449354891481" lon="17.978249970602">
        <ele>27.4</ele>
        <time>2019-09-28T11:02:49Z</time>
      </trkpt>
      <trkpt lat="59.449250369188" lon="17.978250724973">
        <ele>26.6</ele>
        <time>2019-09-28T11:02:53Z</time>
      </trkpt>
      <trkpt lat="59.449058088402" lon="17.978379722414">
        <ele>26</ele>
        <time>2019-09-28T11:03:00Z</time>
      </trkpt>
      <trkpt lat="59.448895730999" lon="17.978593544683">
        <ele>25.4</ele>
        <time>2019-09-28T11:03:06Z</time>
      </trkpt>
      <trkpt lat="59.448734211786" lon="17.97877903613">
        <ele>24.8</ele>
        <time>2019-09-28T11:03:11Z</time>
      </trkpt>
      <trkpt lat="59.448631198235" lon="17.978941225895">
        <ele>24.4</ele>
        <time>2019-09-28T11:03:15Z</time>
      </trkpt>
      <trkpt lat="59.448457860543" lon="17.979102996565">
        <ele>24.2</ele>
        <time>2019-09-28T11:03:21Z</time>
      </trkpt>
      <trkpt lat="59.448275554218" lon="17.979269964013">
        <ele>24.4</ele>
        <time>2019-09-28T11:03:27Z</time>
      </trkpt>
      <trkpt lat="59.44809685211" lon="17.979391920658">
        <ele>25</ele>
        <time>2019-09-28T11:03:34Z</time>
      </trkpt>
      <trkpt lat="59.447901218564" lon="17.979548662188">
        <ele>24</ele>
        <time>2019-09-28T11:03:40Z</time>
      </trkpt>
      <trkpt lat="59.447815304089" lon="17.979594678819">
        <ele>23.2</ele>
        <time>2019-09-28T11:03:43Z</time>
      </trkpt>
      <trkpt lat="59.447637440171" lon="17.979699033474">
        <ele>22.2</ele>
        <time>2019-09-28T11:03:48Z</time>
      </trkpt>
      <trkpt lat="59.447454044199" lon="17.979767765054">
        <ele>21.8</ele>
        <time>2019-09-28T11:03:54Z</time>
      </trkpt>
      <trkpt lat="59.447266122001" lon="17.979746055933">
        <ele>22</ele>
        <time>2019-09-28T11:04:00Z</time>
      </trkpt>
      <trkpt lat="59.447099238372" lon="17.979691741221">
        <ele>23.2</ele>
        <time>2019-09-28T11:04:05Z</time>
      </trkpt>
      <trkpt lat="59.447017179571" lon="17.979686376805">
        <ele>24.4</ele>
        <time>2019-09-28T11:04:08Z</time>
      </trkpt>
      <trkpt lat="59.446896731668" lon="17.979695513076">
        <ele>25.4</ele>
        <time>2019-09-28T11:04:12Z</time>
      </trkpt>
      <trkpt lat="59.446718951569" lon="17.979806824708">
        <ele>26.4</ele>
        <time>2019-09-28T11:04:20Z</time>
      </trkpt>
      <trkpt lat="59.446698667371" lon="17.979820571024">
        <ele>26.4</ele>
        <time>2019-09-28T11:04:21Z</time>
      </trkpt>
      <trkpt lat="59.446553576682" lon="17.98004051208">
        <ele>26.8</ele>
        <time>2019-09-28T11:04:26Z</time>
      </trkpt>
      <trkpt lat="59.446405552328" lon="17.980323065929">
        <ele>26.6</ele>
        <time>2019-09-28T11:04:32Z</time>
      </trkpt>
      <trkpt lat="59.446299521293" lon="17.980608469624">
        <ele>26.6</ele>
        <time>2019-09-28T11:04:39Z</time>
      </trkpt>
      <trkpt lat="59.446122663203" lon="17.980783232239">
        <ele>27.6</ele>
        <time>2019-09-28T11:04:48Z</time>
      </trkpt>
      <trkpt lat="59.445938764317" lon="17.980851628543">
        <ele>28.4</ele>
        <time>2019-09-28T11:04:56Z</time>
      </trkpt>
      <trkpt lat="59.445834661119" lon="17.980794380166">
        <ele>28.6</ele>
        <time>2019-09-28T11:05:00Z</time>
      </trkpt>
      <trkpt lat="59.445647241835" lon="17.980724894215">
        <ele>29.2</ele>
        <time>2019-09-28T11:05:07Z</time>
      </trkpt>
      <trkpt lat="59.445590161096" lon="17.98069513847">
        <ele>29.8</ele>
        <time>2019-09-28T11:05:09Z</time>
      </trkpt>
      <trkpt lat="59.44546409732" lon="17.980659850671">
        <ele>30.8</ele>
        <time>2019-09-28T11:05:14Z</time>
      </trkpt>
      <trkpt lat="59.445353288602" lon="17.980604194855">
        <ele>32.2</ele>
        <time>2019-09-28T11:05:19Z</time>
      </trkpt>
      <trkpt lat="59.445186740249" lon="17.980541162967">
        <ele>33.2</ele>
        <time>2019-09-28T11:05:27Z</time>
      </trkpt>
      <trkpt lat="59.445030836909" lon="17.980463462754">
        <ele>34.2</ele>
        <time>2019-09-28T11:05:33Z</time>
      </trkpt>
      <trkpt lat="59.44490753916" lon="17.980364975429">
        <ele>35.4</ele>
        <time>2019-09-28T11:05:38Z</time>
      </trkpt>
      <trkpt lat="59.444716683297" lon="17.980220303835">
        <ele>36.4</ele>
        <time>2019-09-28T11:05:46Z</time>
      </trkpt>
      <trkpt lat="59.44466865501" lon="17.980178897249">
        <ele>36.4</ele>
        <time>2019-09-28T11:05:48Z</time>
      </trkpt>
      <trkpt lat="59.444500849372" lon="17.979990891232">
        <ele>36.6</ele>
        <time>2019-09-28T11:05:55Z</time>
      </trkpt>
      <trkpt lat="59.444305551102" lon="17.979866336198">
        <ele>36.6</ele>
        <time>2019-09-28T11:06:01Z</time>
      </trkpt>
      <trkpt lat="59.444114276144" lon="17.97984269924">
        <ele>37.6</ele>
        <time>2019-09-28T11:06:08Z</time>
      </trkpt>
      <trkpt lat="59.44392601867" lon="17.979820403386">
        <ele>37.6</ele>
        <time>2019-09-28T11:06:15Z</time>
      </trkpt>
      <trkpt lat="59.443754357358" lon="17.97964237183">
        <ele>37.6</ele>
        <time>2019-09-28T11:06:24Z</time>
      </trkpt>
      <trkpt lat="59.443694929687" lon="17.979567605282">
        <ele>37.4</ele>
        <time>2019-09-28T11:06:27Z</time>
      </trkpt>
      <trkpt lat="59.443507258946" lon="17.979435003624">
        <ele>37.6</ele>
        <time>2019-09-28T11:06:34Z</time>
      </trkpt>
      <trkpt lat="59.443416566788" lon="17.979460652238">
        <ele>38.6</ele>
        <time>2019-09-28T11:06:38Z</time>
      </trkpt>
      <trkpt lat="59.443386811043" lon="17.979497616417">
        <ele>39.8</ele>
        <time>2019-09-28T11:06:40Z</time>
      </trkpt>
      <trkpt lat="59.443350098321" lon="17.979548243093">
        <ele>40.8</ele>
        <time>2019-09-28T11:06:42Z</time>
      </trkpt>
      <trkpt lat="59.443266614597" lon="17.979618399596">
        <ele>41.8</ele>
        <time>2019-09-28T11:06:46Z</time>
      </trkpt>
      <trkpt lat="59.443255382851" lon="17.979650669911">
        <ele>42</ele>
        <time>2019-09-28T11:06:47Z</time>
      </trkpt>
      <trkpt lat="59.443198721207" lon="17.979738847499">
        <ele>43</ele>
        <time>2019-09-28T11:06:51Z</time>
      </trkpt>
      <trkpt lat="59.443148262169" lon="17.979825767802">
        <ele>43.2</ele>
        <time>2019-09-28T11:06:55Z</time>
      </trkpt>
      <trkpt lat="59.44305094831" lon="17.980146375477">
        <ele>42.2</ele>
        <time>2019-09-28T11:07:06Z</time>
      </trkpt>
      <trkpt lat="59.443040638573" lon="17.98019641542">
        <ele>42</ele>
        <time>2019-09-28T11:07:07Z</time>
      </trkpt>
      <trkpt lat="59.44296880569" lon="17.98043027043">
        <ele>40.8</ele>
        <time>2019-09-28T11:07:13Z</time>
      </trkpt>
      <trkpt lat="59.442835617299" lon="17.980718691609">
        <ele>39.8</ele>
        <time>2019-09-28T11:07:20Z</time>
      </trkpt>
      <trkpt lat="59.442799994224" lon="17.980835619114">
        <ele>39.6</ele>
        <time>2019-09-28T11:07:22Z</time>
      </trkpt>
      <trkpt lat="59.442691448619" lon="17.981091686159">
        <ele>38.6</ele>
        <time>2019-09-28T11:07:27Z</time>
      </trkpt>
      <trkpt lat="59.442535712917" lon="17.981265442946">
        <ele>37.8</ele>
        <time>2019-09-28T11:07:34Z</time>
      </trkpt>
      <trkpt lat="59.442513081787" lon="17.981276087959">
        <ele>37.6</ele>
        <time>2019-09-28T11:07:35Z</time>
      </trkpt>
      <trkpt lat="59.442330859281" lon="17.981427884168">
        <ele>36.4</ele>
        <time>2019-09-28T11:07:42Z</time>
      </trkpt>
      <trkpt lat="59.442245782996" lon="17.981479600491">
        <ele>35</ele>
        <time>2019-09-28T11:07:45Z</time>
      </trkpt>
      <trkpt lat="59.442155090838" lon="17.981564509138">
        <ele>33.6</ele>
        <time>2019-09-28T11:07:48Z</time>
      </trkpt>
      <trkpt lat="59.442060459187" lon="17.981715383338">
        <ele>32.4</ele>
        <time>2019-09-28T11:07:52Z</time>
      </trkpt>
      <trkpt lat="59.441949399012" lon="17.98199684754">
        <ele>31.2</ele>
        <time>2019-09-28T11:07:56Z</time>
      </trkpt>
      <trkpt lat="59.441817719363" lon="17.982341175992">
        <ele>30.8</ele>
        <time>2019-09-28T11:08:01Z</time>
      </trkpt>
      <trkpt lat="59.441718058572" lon="17.982633117569">
        <ele>30.4</ele>
        <time>2019-09-28T11:08:07Z</time>
      </trkpt>
      <trkpt lat="59.441661899842" lon="17.982670919938">
        <ele>30.6</ele>
        <time>2019-09-28T11:08:12Z</time>
      </trkpt>
      <trkpt lat="59.441630048622" lon="17.982689527756">
        <ele>30.6</ele>
        <time>2019-09-28T11:08:14Z</time>
      </trkpt>
      <trkpt lat="59.441593252081" lon="17.982738310414">
        <ele>30.6</ele>
        <time>2019-09-28T11:08:16Z</time>
      </trkpt>
      <trkpt lat="59.441491831091" lon="17.982819614844">
        <ele>30</ele>
        <time>2019-09-28T11:08:20Z</time>
      </trkpt>
      <trkpt lat="59.441290162577" lon="17.982957161823">
        <ele>29.2</ele>
        <time>2019-09-28T11:08:27Z</time>
      </trkpt>
      <trkpt lat="59.441215563667" lon="17.983186825883">
        <ele>29</ele>
        <time>2019-09-28T11:08:31Z</time>
      </trkpt>
      <trkpt lat="59.44119603384" lon="17.983212558316">
        <ele>29</ele>
        <time>2019-09-28T11:08:32Z</time>
      </trkpt>
      <trkpt lat="59.44107030534" lon="17.983492513776">
        <ele>28.8</ele>
        <time>2019-09-28T11:08:38Z</time>
      </trkpt>
      <trkpt lat="59.440908702308" lon="17.983715220859">
        <ele>28.6</ele>
        <time>2019-09-28T11:08:44Z</time>
      </trkpt>
      <trkpt lat="59.440737963005" lon="17.983938179399">
        <ele>28.4</ele>
        <time>2019-09-28T11:08:49Z</time>
      </trkpt>
      <trkpt lat="59.440583149312" lon="17.984188379114">
        <ele>29.2</ele>
        <time>2019-09-28T11:08:56Z</time>
      </trkpt>
      <trkpt lat="59.440421378642" lon="17.984391724008">
        <ele>29</ele>
        <time>2019-09-28T11:09:03Z</time>
      </trkpt>
      <trkpt lat="59.440268325148" lon="17.984633038909">
        <ele>27.6</ele>
        <time>2019-09-28T11:09:10Z</time>
      </trkpt>
      <trkpt lat="59.440224823087" lon="17.984754827916">
        <ele>26.4</ele>
        <time>2019-09-28T11:09:12Z</time>
      </trkpt>
      <trkpt lat="59.44017595661" lon="17.984895895293">
        <ele>25.4</ele>
        <time>2019-09-28T11:09:15Z</time>
      </trkpt>
      <trkpt lat="59.440117953862" lon="17.985062276008">
        <ele>24.2</ele>
        <time>2019-09-28T11:09:20Z</time>
      </trkpt>
      <trkpt lat="59.440002870375" lon="17.985200074444">
        <ele>23.2</ele>
        <time>2019-09-28T11:09:26Z</time>
      </trkpt>
      <trkpt lat="59.439847721406" lon="17.985387074633">
        <ele>22.4</ele>
        <time>2019-09-28T11:09:32Z</time>
      </trkpt>
      <trkpt lat="59.439790053934" lon="17.985470390719">
        <ele>22.2</ele>
        <time>2019-09-28T11:09:34Z</time>
      </trkpt>
      <trkpt lat="59.439629037635" lon="17.985601399816">
        <ele>21</ele>
        <time>2019-09-28T11:09:42Z</time>
      </trkpt>
      <trkpt lat="59.439598778976" lon="17.985658480555">
        <ele>21.2</ele>
        <time>2019-09-28T11:09:44Z</time>
      </trkpt>
      <trkpt lat="59.439563155901" lon="17.98590197475">
        <ele>22.2</ele>
        <time>2019-09-28T11:09:49Z</time>
      </trkpt>
      <trkpt lat="59.439493167036" lon="17.986202801141">
        <ele>23.2</ele>
        <time>2019-09-28T11:09:54Z</time>
      </trkpt>
      <trkpt lat="59.43945511321" lon="17.986444367499">
        <ele>24.4</ele>
        <time>2019-09-28T11:09:57Z</time>
      </trkpt>
      <trkpt lat="59.439414293357" lon="17.986800011516">
        <ele>25.4</ele>
        <time>2019-09-28T11:10:03Z</time>
      </trkpt>
      <trkpt lat="59.439430973338" lon="17.987129001091">
        <ele>24.4</ele>
        <time>2019-09-28T11:10:09Z</time>
      </trkpt>
      <trkpt lat="59.439504985515" lon="17.987509455532">
        <ele>23.6</ele>
        <time>2019-09-28T11:10:17Z</time>
      </trkpt>
      <trkpt lat="59.439518648012" lon="17.987556813267">
        <ele>23.2</ele>
        <time>2019-09-28T11:10:18Z</time>
      </trkpt>
      <trkpt lat="59.439552007974" lon="17.98784154641">
        <ele>22</ele>
        <time>2019-09-28T11:10:24Z</time>
      </trkpt>
      <trkpt lat="59.439687040383" lon="17.988280171237">
        <ele>21</ele>
        <time>2019-09-28T11:10:33Z</time>
      </trkpt>
      <trkpt lat="59.439715957938" lon="17.98868225098">
        <ele>20.6</ele>
        <time>2019-09-28T11:10:39Z</time>
      </trkpt>
      <trkpt lat="59.439730207168" lon="17.989041163938">
        <ele>20</ele>
        <time>2019-09-28T11:10:44Z</time>
      </trkpt>
      <trkpt lat="59.439767171347" lon="17.989420612551">
        <ele>20.2</ele>
        <time>2019-09-28T11:10:50Z</time>
      </trkpt>
      <trkpt lat="59.439792317047" lon="17.989687827523">
        <ele>20</ele>
        <time>2019-09-28T11:10:55Z</time>
      </trkpt>
      <trkpt lat="59.439832633986" lon="17.99007113181">
        <ele>20.2</ele>
        <time>2019-09-28T11:11:02Z</time>
      </trkpt>
      <trkpt lat="59.439842776085" lon="17.990450999518">
        <ele>20.4</ele>
        <time>2019-09-28T11:11:10Z</time>
      </trkpt>
      <trkpt lat="59.439851074166" lon="17.990812678503">
        <ele>20.4</ele>
        <time>2019-09-28T11:11:18Z</time>
      </trkpt>
      <trkpt lat="59.439877644789" lon="17.991166478502">
        <ele>20.8</ele>
        <time>2019-09-28T11:11:26Z</time>
      </trkpt>
      <trkpt lat="59.439923745239" lon="17.991383569712">
        <ele>21</ele>
        <time>2019-09-28T11:11:31Z</time>
      </trkpt>
      <trkpt lat="59.439971773526" lon="17.991739297548">
        <ele>21.2</ele>
        <time>2019-09-28T11:11:37Z</time>
      </trkpt>
      <trkpt lat="59.439951908423" lon="17.991805514558">
        <ele>21.2</ele>
        <time>2019-09-28T11:11:38Z</time>
      </trkpt>
      <trkpt lat="59.439968756042" lon="17.992169708113">
        <ele>20.8</ele>
        <time>2019-09-28T11:11:45Z</time>
      </trkpt>
      <trkpt lat="59.439993315009" lon="17.992353187904">
        <ele>22</ele>
        <time>2019-09-28T11:11:50Z</time>
      </trkpt>
      <trkpt lat="59.440009492076" lon="17.99244991503">
        <ele>22.8</ele>
        <time>2019-09-28T11:11:54Z</time>
      </trkpt>
      <trkpt lat="59.440113176179" lon="17.992550414011">
        <ele>23.2</ele>
        <time>2019-09-28T11:12:00Z</time>
      </trkpt>
      <trkpt lat="59.440241670706" lon="17.992724673712">
        <ele>24.4</ele>
        <time>2019-09-28T11:12:07Z</time>
      </trkpt>
      <trkpt lat="59.440307971535" lon="17.992786113039">
        <ele>24.8</ele>
        <time>2019-09-28T11:12:11Z</time>
      </trkpt>
      <trkpt lat="59.44035113832" lon="17.992846797995">
        <ele>24.6</ele>
        <time>2019-09-28T11:12:14Z</time>
      </trkpt>
      <trkpt lat="59.44042238447" lon="17.992899101051">
        <ele>24.2</ele>
        <time>2019-09-28T11:12:18Z</time>
      </trkpt>
      <trkpt lat="59.440477034458" lon="17.992936232868">
        <ele>24.2</ele>
        <time>2019-09-28T11:12:20Z</time>
      </trkpt>
      <trkpt lat="59.440683648293" lon="17.993056680771">
        <ele>24.6</ele>
        <time>2019-09-28T11:12:29Z</time>
      </trkpt>
      <trkpt lat="59.440778363763" lon="17.993181403443">
        <ele>24.4</ele>
        <time>2019-09-28T11:12:34Z</time>
      </trkpt>
      <trkpt lat="59.440852795035" lon="17.993408217657">
        <ele>23.4</ele>
        <time>2019-09-28T11:12:40Z</time>
      </trkpt>
      <trkpt lat="59.440971901834" lon="17.993572586716">
        <ele>22</ele>
        <time>2019-09-28T11:12:45Z</time>
      </trkpt>
      <trkpt lat="59.441039040853" lon="17.993651795671">
        <ele>20.4</ele>
        <time>2019-09-28T11:12:48Z</time>
      </trkpt>
      <trkpt lat="59.441131744667" lon="17.993750702091">
        <ele>19.4</ele>
        <time>2019-09-28T11:12:52Z</time>
      </trkpt>
      <trkpt lat="59.441246492878" lon="17.993831000693">
        <ele>18.6</ele>
        <time>2019-09-28T11:12:58Z</time>
      </trkpt>
      <trkpt lat="59.441308016024" lon="17.993870730899">
        <ele>19</ele>
        <time>2019-09-28T11:13:01Z</time>
      </trkpt>
      <trkpt lat="59.441333664638" lon="17.993876598229">
        <ele>19.2</ele>
        <time>2019-09-28T11:13:03Z</time>
      </trkpt>
      <trkpt lat="59.441428799203" lon="17.993952705881">
        <ele>19.4</ele>
        <time>2019-09-28T11:13:07Z</time>
      </trkpt>
      <trkpt lat="59.441507672882" lon="17.994040045279">
        <ele>20.6</ele>
        <time>2019-09-28T11:13:12Z</time>
      </trkpt>
      <trkpt lat="59.441538518274" lon="17.994053623957">
        <ele>20.8</ele>
        <time>2019-09-28T11:13:14Z</time>
      </trkpt>
      <trkpt lat="59.441577158833" lon="17.994077596191">
        <ele>21</ele>
        <time>2019-09-28T11:13:16Z</time>
      </trkpt>
      <trkpt lat="59.441754184561" lon="17.994211622772">
        <ele>21.4</ele>
        <time>2019-09-28T11:13:22Z</time>
      </trkpt>
      <trkpt lat="59.441951745944" lon="17.994234505359">
        <ele>20.2</ele>
        <time>2019-09-28T11:13:29Z</time>
      </trkpt>
      <trkpt lat="59.442064147223" lon="17.994270882805">
        <ele>19.6</ele>
        <time>2019-09-28T11:13:31Z</time>
      </trkpt>
      <trkpt lat="59.442249303394" lon="17.994253532272">
        <ele>18.6</ele>
        <time>2019-09-28T11:13:34Z</time>
      </trkpt>
      <trkpt lat="59.442290374704" lon="17.994241294698">
        <ele>18.2</ele>
        <time>2019-09-28T11:13:35Z</time>
      </trkpt>
      <trkpt lat="59.442371679134" lon="17.994182537579">
        <ele>17</ele>
        <time>2019-09-28T11:13:39Z</time>
      </trkpt>
      <trkpt lat="59.442543508084" lon="17.99398212635">
        <ele>16.6</ele>
        <time>2019-09-28T11:13:45Z</time>
      </trkpt>
      <trkpt lat="59.442698740872" lon="17.993791270487">
        <ele>17.4</ele>
        <time>2019-09-28T11:13:52Z</time>
      </trkpt>
      <trkpt lat="59.442888674726" lon="17.993731088445">
        <ele>18</ele>
        <time>2019-09-28T11:13:56Z</time>
      </trkpt>
      <trkpt lat="59.442964111826" lon="17.993687502565">
        <ele>18.2</ele>
        <time>2019-09-28T11:13:58Z</time>
      </trkpt>
      <trkpt lat="59.443156644069" lon="17.993634026043">
        <ele>17.2</ele>
        <time>2019-09-28T11:14:03Z</time>
      </trkpt>
      <trkpt lat="59.443198637388" lon="17.993618435709">
        <ele>17.2</ele>
        <time>2019-09-28T11:14:04Z</time>
      </trkpt>
      <trkpt lat="59.443332077236" lon="17.993553392165">
        <ele>15.8</ele>
        <time>2019-09-28T11:14:08Z</time>
      </trkpt>
      <trkpt lat="59.44345579408" lon="17.993507040258">
        <ele>14.6</ele>
        <time>2019-09-28T11:14:12Z</time>
      </trkpt>
      <trkpt lat="59.443599711303" lon="17.993424478543">
        <ele>13.6</ele>
        <time>2019-09-28T11:14:16Z</time>
      </trkpt>
      <trkpt lat="59.443755949919" lon="17.993189701524">
        <ele>13.2</ele>
        <time>2019-09-28T11:14:22Z</time>
      </trkpt>
      <trkpt lat="59.443877822745" lon="17.992895077739">
        <ele>13.6</ele>
        <time>2019-09-28T11:14:29Z</time>
      </trkpt>
      <trkpt lat="59.444022745796" lon="17.992644794205">
        <ele>14.4</ele>
        <time>2019-09-28T11:14:35Z</time>
      </trkpt>
      <trkpt lat="59.444074294481" lon="17.992555443151">
        <ele>15</ele>
        <time>2019-09-28T11:14:38Z</time>
      </trkpt>
      <trkpt lat="59.444166243924" lon="17.992299376106">
        <ele>16.4</ele>
        <time>2019-09-28T11:14:45Z</time>
      </trkpt>
      <trkpt lat="59.444203208103" lon="17.992105838035">
        <ele>17.4</ele>
        <time>2019-09-28T11:14:49Z</time>
      </trkpt>
      <trkpt lat="59.444247967449" lon="17.991753211502">
        <ele>18.2</ele>
        <time>2019-09-28T11:14:57Z</time>
      </trkpt>
      <trkpt lat="59.444288535845" lon="17.991672996719">
        <ele>18.4</ele>
        <time>2019-09-28T11:15:00Z</time>
      </trkpt>
      <trkpt lat="59.444345281308" lon="17.991562439458">
        <ele>19.4</ele>
        <time>2019-09-28T11:15:05Z</time>
      </trkpt>
      <trkpt lat="59.444432033973" lon="17.991507035099">
        <ele>20.6</ele>
        <time>2019-09-28T11:15:09Z</time>
      </trkpt>
      <trkpt lat="59.444628254252" lon="17.991486247987">
        <ele>21.2</ele>
        <time>2019-09-28T11:15:18Z</time>
      </trkpt>
      <trkpt lat="59.44481450007" lon="17.991446350143">
        <ele>21.4</ele>
        <time>2019-09-28T11:15:28Z</time>
      </trkpt>
      <trkpt lat="59.444831180051" lon="17.991451463102">
        <ele>21.6</ele>
        <time>2019-09-28T11:15:29Z</time>
      </trkpt>
      <trkpt lat="59.444917010707" lon="17.991485325978">
        <ele>22.8</ele>
        <time>2019-09-28T11:15:33Z</time>
      </trkpt>
      <trkpt lat="59.444935367068" lon="17.991497312095">
        <ele>23.2</ele>
        <time>2019-09-28T11:15:34Z</time>
      </trkpt>
      <trkpt lat="59.444956573275" lon="17.99149018748">
        <ele>24.2</ele>
        <time>2019-09-28T11:15:36Z</time>
      </trkpt>
      <trkpt lat="59.445045924329" lon="17.991518099207">
        <ele>25.4</ele>
        <time>2019-09-28T11:15:40Z</time>
      </trkpt>
      <trkpt lat="59.445083391422" lon="17.99153964069">
        <ele>26.4</ele>
        <time>2019-09-28T11:15:43Z</time>
      </trkpt>
      <trkpt lat="59.445091270408" lon="17.991548609323">
        <ele>26.8</ele>
        <time>2019-09-28T11:15:44Z</time>
      </trkpt>
      <trkpt lat="59.445105435819" lon="17.991575766679">
        <ele>27.4</ele>
        <time>2019-09-28T11:15:46Z</time>
      </trkpt>
      <trkpt lat="59.445134018098" lon="17.99162513607">
        <ele>28</ele>
        <time>2019-09-28T11:15:48Z</time>
      </trkpt>
      <trkpt lat="59.445177268702" lon="17.991678528773">
        <ele>28.6</ele>
        <time>2019-09-28T11:15:50Z</time>
      </trkpt>
      <trkpt lat="59.445239797676" lon="17.991829486792">
        <ele>29.8</ele>
        <time>2019-09-28T11:15:54Z</time>
      </trkpt>
      <trkpt lat="59.445414560291" lon="17.992102317637">
        <ele>30.4</ele>
        <time>2019-09-28T11:16:01Z</time>
      </trkpt>
      <trkpt lat="59.445477592179" lon="17.992134252676">
        <ele>31</ele>
        <time>2019-09-28T11:16:03Z</time>
      </trkpt>
      <trkpt lat="59.445623772515" lon="17.992184879352">
        <ele>32</ele>
        <time>2019-09-28T11:16:09Z</time>
      </trkpt>
      <trkpt lat="59.445807839039" lon="17.992202146066">
        <ele>31.6</ele>
        <time>2019-09-28T11:16:15Z</time>
      </trkpt>
      <trkpt lat="59.44608435792" lon="17.992110280442">
        <ele>32</ele>
        <time>2019-09-28T11:16:26Z</time>
      </trkpt>
      <trkpt lat="59.446266161331" lon="17.992062335974">
        <ele>32</ele>
        <time>2019-09-28T11:16:32Z</time>
      </trkpt>
      <trkpt lat="59.446466488741" lon="17.992066107829">
        <ele>31.8</ele>
        <time>2019-09-28T11:16:38Z</time>
      </trkpt>
      <trkpt lat="59.446643179193" lon="17.992092343176">
        <ele>30.8</ele>
        <time>2019-09-28T11:16:43Z</time>
      </trkpt>
      <trkpt lat="59.446742504708" lon="17.992072058978">
        <ele>29.8</ele>
        <time>2019-09-28T11:16:46Z</time>
      </trkpt>
      <trkpt lat="59.446917770237" lon="17.991998214439">
        <ele>28.8</ele>
        <time>2019-09-28T11:16:52Z</time>
      </trkpt>
      <trkpt lat="59.44708599497" lon="17.991846753506">
        <ele>28.2</ele>
        <time>2019-09-28T11:17:01Z</time>
      </trkpt>
      <trkpt lat="59.447247346545" lon="17.991653969806">
        <ele>28.2</ele>
        <time>2019-09-28T11:17:09Z</time>
      </trkpt>
      <trkpt lat="59.447348851354" lon="17.991567720055">
        <ele>27.8</ele>
        <time>2019-09-28T11:17:13Z</time>
      </trkpt>
      <trkpt lat="59.447533253154" lon="17.991398070399">
        <ele>26.8</ele>
        <time>2019-09-28T11:17:20Z</time>
      </trkpt>
      <trkpt lat="59.447548592031" lon="17.991376612735">
        <ele>26.6</ele>
        <time>2019-09-28T11:17:21Z</time>
      </trkpt>
      <trkpt lat="59.447683540621" lon="17.99110797284">
        <ele>26.8</ele>
        <time>2019-09-28T11:17:29Z</time>
      </trkpt>
      <trkpt lat="59.447755624961" lon="17.990910076181">
        <ele>27.8</ele>
        <time>2019-09-28T11:17:34Z</time>
      </trkpt>
      <trkpt lat="59.447832235527" lon="17.990548816291">
        <ele>28</ele>
        <time>2019-09-28T11:17:42Z</time>
      </trkpt>
      <trkpt lat="59.447929800843" lon="17.990194429559">
        <ele>28.2</ele>
        <time>2019-09-28T11:17:50Z</time>
      </trkpt>
      <trkpt lat="59.448012446377" lon="17.989874660074">
        <ele>28.4</ele>
        <time>2019-09-28T11:17:58Z</time>
      </trkpt>
      <trkpt lat="59.448063492148" lon="17.989488170665">
        <ele>27.2</ele>
        <time>2019-09-28T11:18:05Z</time>
      </trkpt>
      <trkpt lat="59.448088554029" lon="17.989375937024">
        <ele>26.6</ele>
        <time>2019-09-28T11:18:07Z</time>
      </trkpt>
      <trkpt lat="59.44816726007" lon="17.989237300398">
        <ele>25.4</ele>
        <time>2019-09-28T11:18:10Z</time>
      </trkpt>
      <trkpt lat="59.448247391034" lon="17.989108219138">
        <ele>24.2</ele>
        <time>2019-09-28T11:18:14Z</time>
      </trkpt>
      <trkpt lat="59.448327521998" lon="17.988975868937">
        <ele>22.8</ele>
        <time>2019-09-28T11:18:18Z</time>
      </trkpt>
      <trkpt lat="59.448458698733" lon="17.988833544275">
        <ele>21.8</ele>
        <time>2019-09-28T11:18:22Z</time>
      </trkpt>
      <trkpt lat="59.448629773312" lon="17.988667498836">
        <ele>21.6</ele>
        <time>2019-09-28T11:18:28Z</time>
      </trkpt>
      <trkpt lat="59.448786598661" lon="17.988462980476">
        <ele>21.4</ele>
        <time>2019-09-28T11:18:35Z</time>
      </trkpt>
      <trkpt lat="59.448961948009" lon="17.988273465717">
        <ele>22</ele>
        <time>2019-09-28T11:18:45Z</time>
      </trkpt>
      <trkpt lat="59.449148445284" lon="17.98826818512">
        <ele>21.2</ele>
        <time>2019-09-28T11:18:52Z</time>
      </trkpt>
      <trkpt lat="59.449331841256" lon="17.988243793791">
        <ele>21.2</ele>
        <time>2019-09-28T11:19:00Z</time>
      </trkpt>
      <trkpt lat="59.449507358242" lon="17.98814916214">
        <ele>21</ele>
        <time>2019-09-28T11:19:05Z</time>
      </trkpt>
      <trkpt lat="59.449610287974" lon="17.988054111394">
        <ele>20.6</ele>
        <time>2019-09-28T11:19:09Z</time>
      </trkpt>
      <trkpt lat="59.449761665088" lon="17.987747501492">
        <ele>20.8</ele>
        <time>2019-09-28T11:19:16Z</time>
      </trkpt>
      <trkpt lat="59.449876245661" lon="17.987449441128">
        <ele>20.6</ele>
        <time>2019-09-28T11:19:23Z</time>
      </trkpt>
      <trkpt lat="59.449873144358" lon="17.987380206634">
        <ele>20.4</ele>
        <time>2019-09-28T11:19:24Z</time>
      </trkpt>
      <trkpt lat="59.449987054379" lon="17.987048199575">
        <ele>19.6</ele>
        <time>2019-09-28T11:19:31Z</time>
      </trkpt>
      <trkpt lat="59.450071879207" lon="17.986890033122">
        <ele>18.4</ele>
        <time>2019-09-28T11:19:35Z</time>
      </trkpt>
      <trkpt lat="59.450171623817" lon="17.986729352099">
        <ele>17.2</ele>
        <time>2019-09-28T11:19:40Z</time>
      </trkpt>
      <trkpt lat="59.450364910431" lon="17.986560037719">
        <ele>17.2</ele>
        <time>2019-09-28T11:19:52Z</time>
      </trkpt>
      <trkpt lat="59.450541433245" lon="17.986394914289">
        <ele>17</ele>
        <time>2019-09-28T11:19:59Z</time>
      </trkpt>
      <trkpt lat="59.450632460679" lon="17.986266671219">
        <ele>16.2</ele>
        <time>2019-09-28T11:20:03Z</time>
      </trkpt>
      <trkpt lat="59.450748382356" lon="17.985942962241">
        <ele>15.4</ele>
        <time>2019-09-28T11:20:11Z</time>
      </trkpt>
      <trkpt lat="59.45078995658" lon="17.985852102445">
        <ele>15.4</ele>
        <time>2019-09-28T11:20:13Z</time>
      </trkpt>
      <trkpt lat="59.450819712325" lon="17.98575110055">
        <ele>15.2</ele>
        <time>2019-09-28T11:20:15Z</time>
      </trkpt>
      <trkpt lat="59.450859274893" lon="17.985631826113">
        <ele>15.2</ele>
        <time>2019-09-28T11:20:18Z</time>
      </trkpt>
      <trkpt lat="59.450993804388" lon="17.985341309459">
        <ele>16</ele>
        <time>2019-09-28T11:20:25Z</time>
      </trkpt>
      <trkpt lat="59.451013082758" lon="17.985216419149">
        <ele>16.2</ele>
        <time>2019-09-28T11:20:27Z</time>
      </trkpt>
      <trkpt lat="59.45111768887" lon="17.984890111782">
        <ele>16.8</ele>
        <time>2019-09-28T11:20:33Z</time>
      </trkpt>
      <trkpt lat="59.451222294982" lon="17.984555925429">
        <ele>16.4</ele>
        <time>2019-09-28T11:20:40Z</time>
      </trkpt>
      <trkpt lat="59.451294463141" lon="17.984173710789">
        <ele>15.6</ele>
        <time>2019-09-28T11:20:47Z</time>
      </trkpt>
      <trkpt lat="59.451344335446" lon="17.983795100366">
        <ele>15.8</ele>
        <time>2019-09-28T11:20:54Z</time>
      </trkpt>
      <trkpt lat="59.451407367334" lon="17.983559736614">
        <ele>16</ele>
        <time>2019-09-28T11:20:59Z</time>
      </trkpt>
      <trkpt lat="59.451454305974" lon="17.983437277055">
        <ele>15.8</ele>
        <time>2019-09-28T11:21:02Z</time>
      </trkpt>
      <trkpt lat="59.451603922889" lon="17.983222784234">
        <ele>16</ele>
        <time>2019-09-28T11:21:08Z</time>
      </trkpt>
      <trkpt lat="59.45178237354" lon="17.983065875066">
        <ele>16.2</ele>
        <time>2019-09-28T11:21:18Z</time>
      </trkpt>
      <trkpt lat="59.451952693748" lon="17.982897566514">
        <ele>15.8</ele>
        <time>2019-09-28T11:21:26Z</time>
      </trkpt>
      <trkpt lat="59.452144220163" lon="17.982835205178">
        <ele>15.4</ele>
        <time>2019-09-28T11:21:33Z</time>
      </trkpt>
      <trkpt lat="59.452318647502" lon="17.982721295157">
        <ele>15.8</ele>
        <time>2019-09-28T11:21:40Z</time>
      </trkpt>
      <trkpt lat="59.452447812581" lon="17.982515770969">
        <ele>17.4</ele>
        <time>2019-09-28T11:21:47Z</time>
      </trkpt>
      <trkpt lat="59.452479496163" lon="17.982345786037">
        <ele>18.4</ele>
        <time>2019-09-28T11:21:52Z</time>
      </trkpt>
      <trkpt lat="59.452476813955" lon="17.982312174618">
        <ele>18.4</ele>
        <time>2019-09-28T11:21:53Z</time>
      </trkpt>
      <trkpt lat="59.4524730421" lon="17.982256015888">
        <ele>18.6</ele>
        <time>2019-09-28T11:21:55Z</time>
      </trkpt>
      <trkpt lat="59.452467677684" lon="17.982180997883">
        <ele>18.6</ele>
        <time>2019-09-28T11:21:57Z</time>
      </trkpt>
      <trkpt lat="59.452439095405" lon="17.98188369189">
        <ele>19.6</ele>
        <time>2019-09-28T11:22:04Z</time>
      </trkpt>
      <trkpt lat="59.452386037978" lon="17.981517067584">
        <ele>20.4</ele>
        <time>2019-09-28T11:22:11Z</time>
      </trkpt>
      <trkpt lat="59.452380338286" lon="17.981462166139">
        <ele>20.8</ele>
        <time>2019-09-28T11:22:12Z</time>
      </trkpt>
      <trkpt lat="59.452357874794" lon="17.981263263652">
        <ele>21.4</ele>
        <time>2019-09-28T11:22:15Z</time>
      </trkpt>
      <trkpt lat="59.452312025801" lon="17.98090468597">
        <ele>21.2</ele>
        <time>2019-09-28T11:22:22Z</time>
      </trkpt>
      <trkpt lat="59.452190991165" lon="17.980626490709">
        <ele>21.6</ele>
        <time>2019-09-28T11:22:30Z</time>
      </trkpt>
      <trkpt lat="59.452160313411" lon="17.980575780214">
        <ele>22</ele>
        <time>2019-09-28T11:22:32Z</time>
      </trkpt>
      <trkpt lat="59.452020587138" lon="17.98033806953">
        <ele>22.6</ele>
        <time>2019-09-28T11:22:38Z</time>
      </trkpt>
      <trkpt lat="59.451972810308" lon="17.980262464792">
        <ele>23.4</ele>
        <time>2019-09-28T11:22:40Z</time>
      </trkpt>
      <trkpt lat="59.45191313118" lon="17.980152326626">
        <ele>24.6</ele>
        <time>2019-09-28T11:22:43Z</time>
      </trkpt>
      <trkpt lat="59.451752031062" lon="17.979914029209">
        <ele>25.4</ele>
        <time>2019-09-28T11:22:50Z</time>
      </trkpt>
      <trkpt lat="59.451727136819" lon="17.979883099998">
        <ele>25.6</ele>
        <time>2019-09-28T11:22:51Z</time>
      </trkpt>
      <trkpt lat="59.451642228172" lon="17.97971026522">
        <ele>26.8</ele>
        <time>2019-09-28T11:22:55Z</time>
      </trkpt>
      <trkpt lat="59.451560756104" lon="17.979361997275">
        <ele>27.6</ele>
        <time>2019-09-28T11:23:03Z</time>
      </trkpt>
      <trkpt lat="59.451476685647" lon="17.979030828406">
        <ele>27.6</ele>
        <time>2019-09-28T11:23:09Z</time>
      </trkpt>
      <trkpt lat="59.45147978695" lon="17.978980537006">
        <ele>27.4</ele>
        <time>2019-09-28T11:23:10Z</time>
      </trkpt>
      <trkpt lat="59.451491940705" lon="17.9788821335">
        <ele>27.4</ele>
        <time>2019-09-28T11:23:12Z</time>
      </trkpt>
      <trkpt lat="59.451509291238" lon="17.97884273857">
        <ele>27.8</ele>
        <time>2019-09-28T11:23:15Z</time>
      </trkpt>
      <trkpt lat="59.451624961458" lon="17.978877188179">
        <ele>28.6</ele>
        <time>2019-09-28T11:23:23Z</time>
      </trkpt>
      <trkpt lat="59.451658908153" lon="17.978871572306">
        <ele>29</ele>
        <time>2019-09-28T11:23:25Z</time>
      </trkpt>
      <trkpt lat="59.451760748238" lon="17.978858831818">
        <ele>29.6</ele>
        <time>2019-09-28T11:23:31Z</time>
      </trkpt>
      <trkpt lat="59.451821684651" lon="17.978839888724">
        <ele>30.2</ele>
        <time>2019-09-28T11:23:34Z</time>
      </trkpt>
      <trkpt lat="59.451920171976" lon="17.978805606753">
        <ele>31.4</ele>
        <time>2019-09-28T11:23:39Z</time>
      </trkpt>
      <trkpt lat="59.451963087304" lon="17.978811893178">
        <ele>32</ele>
        <time>2019-09-28T11:23:42Z</time>
      </trkpt>
      <trkpt lat="59.452076326773" lon="17.978833853756">
        <ele>32.4</ele>
        <time>2019-09-28T11:23:46Z</time>
      </trkpt>
      <trkpt lat="59.452273888156" lon="17.978820191259">
        <ele>32.2</ele>
        <time>2019-09-28T11:23:52Z</time>
      </trkpt>
      <trkpt lat="59.452469856978" lon="17.978748274557">
        <ele>31.6</ele>
        <time>2019-09-28T11:23:58Z</time>
      </trkpt>
      <trkpt lat="59.452492236651" lon="17.978728912368">
        <ele>31.2</ele>
        <time>2019-09-28T11:23:59Z</time>
      </trkpt>
      <trkpt lat="59.452667921275" lon="17.978629335396">
        <ele>31.2</ele>
        <time>2019-09-28T11:24:05Z</time>
      </trkpt>
      <trkpt lat="59.452853412722" lon="17.97851081533">
        <ele>31.8</ele>
        <time>2019-09-28T11:24:12Z</time>
      </trkpt>
      <trkpt lat="59.453012501184" lon="17.978339573113">
        <ele>32</ele>
        <time>2019-09-28T11:24:18Z</time>
      </trkpt>
      <trkpt lat="59.453052901942" lon="17.978279558709">
        <ele>32.2</ele>
        <time>2019-09-28T11:24:20Z</time>
      </trkpt>
      <trkpt lat="59.453136469485" lon="17.978168079439">
        <ele>33.4</ele>
        <time>2019-09-28T11:24:24Z</time>
      </trkpt>
      <trkpt lat="59.45320897292" lon="17.978096246556">
        <ele>34.6</ele>
        <time>2019-09-28T11:24:27Z</time>
      </trkpt>
      <trkpt lat="59.45330033563" lon="17.977922992683">
        <ele>35.6</ele>
        <time>2019-09-28T11:24:32Z</time>
      </trkpt>
      <trkpt lat="59.45334978884" lon="17.977817045467">
        <ele>35.4</ele>
        <time>2019-09-28T11:24:35Z</time>
      </trkpt>
      <trkpt lat="59.45349898666" lon="17.977625351414">
        <ele>34.8</ele>
        <time>2019-09-28T11:24:42Z</time>
      </trkpt>
      <trkpt lat="59.453556067399" lon="17.977595595669">
        <ele>34.6</ele>
        <time>2019-09-28T11:24:44Z</time>
      </trkpt>
      <trkpt lat="59.453757065361" lon="17.977473555205">
        <ele>35.4</ele>
        <time>2019-09-28T11:24:51Z</time>
      </trkpt>
      <trkpt lat="59.453929732501" lon="17.977352939664">
        <ele>34.6</ele>
        <time>2019-09-28T11:24:57Z</time>
      </trkpt>
      <trkpt lat="59.454022603953" lon="17.97723760472">
        <ele>33.2</ele>
        <time>2019-09-28T11:25:01Z</time>
      </trkpt>
      <trkpt lat="59.45414187839" lon="17.977060495173">
        <ele>32</ele>
        <time>2019-09-28T11:25:06Z</time>
      </trkpt>
      <trkpt lat="59.45420138988" lon="17.976955637604">
        <ele>30.8</ele>
        <time>2019-09-28T11:25:09Z</time>
      </trkpt>
      <trkpt lat="59.454252938565" lon="17.976843320144">
        <ele>29.6</ele>
        <time>2019-09-28T11:25:12Z</time>
      </trkpt>
      <trkpt lat="59.45436818969" lon="17.976610219505">
        <ele>28.6</ele>
        <time>2019-09-28T11:25:18Z</time>
      </trkpt>
      <trkpt lat="59.454503725013" lon="17.976329593493">
        <ele>28.4</ele>
        <time>2019-09-28T11:25:25Z</time>
      </trkpt>
      <trkpt lat="59.45466155619" lon="17.976153322136">
        <ele>28.2</ele>
        <time>2019-09-28T11:25:32Z</time>
      </trkpt>
      <trkpt lat="59.454739256403" lon="17.976052990793">
        <ele>27.4</ele>
        <time>2019-09-28T11:25:36Z</time>
      </trkpt>
      <trkpt lat="59.454794660762" lon="17.975934554546">
        <ele>26.2</ele>
        <time>2019-09-28T11:25:39Z</time>
      </trkpt>
      <trkpt lat="59.454878479762" lon="17.975759456655">
        <ele>25.2</ele>
        <time>2019-09-28T11:25:43Z</time>
      </trkpt>
      <trkpt lat="59.454925250764" lon="17.975636913277">
        <ele>24</ele>
        <time>2019-09-28T11:25:46Z</time>
      </trkpt>
      <trkpt lat="59.454975206888" lon="17.975518225573">
        <ele>23</ele>
        <time>2019-09-28T11:25:49Z</time>
      </trkpt>
      <trkpt lat="59.45500772866" lon="17.975409428511">
        <ele>22</ele>
        <time>2019-09-28T11:25:51Z</time>
      </trkpt>
      <trkpt lat="59.455048716151" lon="17.975303984209">
        <ele>20.4</ele>
        <time>2019-09-28T11:25:54Z</time>
      </trkpt>
      <trkpt lat="59.455070173815" lon="17.975232821878">
        <ele>19.4</ele>
        <time>2019-09-28T11:25:56Z</time>
      </trkpt>
      <trkpt lat="59.455108562917" lon="17.975151601267">
        <ele>18</ele>
        <time>2019-09-28T11:25:59Z</time>
      </trkpt>
      <trkpt lat="59.455219203997" lon="17.974882458458">
        <ele>17</ele>
        <time>2019-09-28T11:26:05Z</time>
      </trkpt>
      <trkpt lat="59.455276368555" lon="17.974535783074">
        <ele>16.4</ele>
        <time>2019-09-28T11:26:12Z</time>
      </trkpt>
      <trkpt lat="59.455338897529" lon="17.974166057465">
        <ele>16.2</ele>
        <time>2019-09-28T11:26:20Z</time>
      </trkpt>
      <trkpt lat="59.455394301888" lon="17.973783256092">
        <ele>16.4</ele>
        <time>2019-09-28T11:26:28Z</time>
      </trkpt>
      <trkpt lat="59.455459093975" lon="17.973377488313">
        <ele>16</ele>
        <time>2019-09-28T11:26:36Z</time>
      </trkpt>
      <trkpt lat="59.455504607692" lon="17.973219489498">
        <ele>16</ele>
        <time>2019-09-28T11:26:39Z</time>
      </trkpt>
      <trkpt lat="59.455585995941" lon="17.97290751518">
        <ele>16.2</ele>
        <time>2019-09-28T11:26:46Z</time>
      </trkpt>
      <trkpt lat="59.455490107005" lon="17.972572574456">
        <ele>16.4</ele>
        <time>2019-09-28T11:26:52Z</time>
      </trkpt>
      <trkpt lat="59.455413999353" lon="17.9722352868">
        <ele>16.2</ele>
        <time>2019-09-28T11:26:57Z</time>
      </trkpt>
      <trkpt lat="59.455347447067" lon="17.971904620845">
        <ele>16.2</ele>
        <time>2019-09-28T11:27:03Z</time>
      </trkpt>
      <trkpt lat="59.455311907811" lon="17.971739748872">
        <ele>16.4</ele>
        <time>2019-09-28T11:27:07Z</time>
      </trkpt>
      <trkpt lat="59.45511753155" lon="17.971653666759">
        <ele>17.2</ele>
        <time>2019-09-28T11:27:14Z</time>
      </trkpt>
      <trkpt lat="59.455042597364" lon="17.971595077278">
        <ele>18.4</ele>
        <time>2019-09-28T11:27:17Z</time>
      </trkpt>
      <trkpt lat="59.454936817786" lon="17.971457781756">
        <ele>19.4</ele>
        <time>2019-09-28T11:27:22Z</time>
      </trkpt>
      <trkpt lat="59.454882419255" lon="17.971352840368">
        <ele>20.8</ele>
        <time>2019-09-28T11:27:26Z</time>
      </trkpt>
      <trkpt lat="59.454857189736" lon="17.97129567581">
        <ele>21.8</ele>
        <time>2019-09-28T11:27:28Z</time>
      </trkpt>
      <trkpt lat="59.454815866969" lon="17.971239265623">
        <ele>23</ele>
        <time>2019-09-28T11:27:31Z</time>
      </trkpt>
      <trkpt lat="59.454770101795" lon="17.971200625064">
        <ele>24.2</ele>
        <time>2019-09-28T11:27:34Z</time>
      </trkpt>
      <trkpt lat="59.454734981634" lon="17.971182184884">
        <ele>25.2</ele>
        <time>2019-09-28T11:27:36Z</time>
      </trkpt>
      <trkpt lat="59.4546523361" lon="17.971107669793">
        <ele>26.4</ele>
        <time>2019-09-28T11:27:41Z</time>
      </trkpt>
      <trkpt lat="59.454568768557" lon="17.971037848566">
        <ele>27.8</ele>
        <time>2019-09-28T11:27:46Z</time>
      </trkpt>
      <trkpt lat="59.45449308" lon="17.970959729258">
        <ele>28.8</ele>
        <time>2019-09-28T11:27:50Z</time>
      </trkpt>
      <trkpt lat="59.45442770118" lon="17.970901642691">
        <ele>29.8</ele>
        <time>2019-09-28T11:27:54Z</time>
      </trkpt>
      <trkpt lat="59.454366764767" lon="17.970806508126">
        <ele>31</ele>
        <time>2019-09-28T11:27:58Z</time>
      </trkpt>
      <trkpt lat="59.454328962398" lon="17.970733920872">
        <ele>32</ele>
        <time>2019-09-28T11:28:01Z</time>
      </trkpt>
      <trkpt lat="59.454286633803" lon="17.970624117982">
        <ele>33.2</ele>
        <time>2019-09-28T11:28:05Z</time>
      </trkpt>
      <trkpt lat="59.454257297153" lon="17.97043904563">
        <ele>34.2</ele>
        <time>2019-09-28T11:28:09Z</time>
      </trkpt>
      <trkpt lat="59.45424413757" lon="17.970267468137">
        <ele>35.4</ele>
        <time>2019-09-28T11:28:13Z</time>
      </trkpt>
      <trkpt lat="59.454214298006" lon="17.970062530682">
        <ele>36.6</ele>
        <time>2019-09-28T11:28:17Z</time>
      </trkpt>
      <trkpt lat="59.454209604142" lon="17.96991098593">
        <ele>37.8</ele>
        <time>2019-09-28T11:28:20Z</time>
      </trkpt>
      <trkpt lat="59.454206838115" lon="17.969780395928">
        <ele>39</ele>
        <time>2019-09-28T11:28:23Z</time>
      </trkpt>
      <trkpt lat="59.454173394334" lon="17.969617032697">
        <ele>40.2</ele>
        <time>2019-09-28T11:28:27Z</time>
      </trkpt>
      <trkpt lat="59.454138693268" lon="17.96949859645">
        <ele>41.4</ele>
        <time>2019-09-28T11:28:30Z</time>
      </trkpt>
      <trkpt lat="59.454044313074" lon="17.969380746936">
        <ele>42.4</ele>
        <time>2019-09-28T11:28:35Z</time>
      </trkpt>
      <trkpt lat="59.453860078912" lon="17.969254431703">
        <ele>42</ele>
        <time>2019-09-28T11:28:42Z</time>
      </trkpt>
      <trkpt lat="59.453762932691" lon="17.969186705951">
        <ele>41.4</ele>
        <time>2019-09-28T11:28:46Z</time>
      </trkpt>
      <trkpt lat="59.453660338235" lon="17.96909877982">
        <ele>40.4</ele>
        <time>2019-09-28T11:28:50Z</time>
      </trkpt>
      <trkpt lat="59.453567885878" lon="17.969021833978">
        <ele>39.2</ele>
        <time>2019-09-28T11:28:54Z</time>
      </trkpt>
      <trkpt lat="59.453490940036" lon="17.968933404933">
        <ele>38</ele>
        <time>2019-09-28T11:28:58Z</time>
      </trkpt>
      <trkpt lat="59.453410306158" lon="17.968883113533">
        <ele>37</ele>
        <time>2019-09-28T11:29:01Z</time>
      </trkpt>
      <trkpt lat="59.45336487626" lon="17.968863835163">
        <ele>35.8</ele>
        <time>2019-09-28T11:29:03Z</time>
      </trkpt>
      <trkpt lat="59.45331374667" lon="17.968855788539">
        <ele>34.6</ele>
        <time>2019-09-28T11:29:05Z</time>
      </trkpt>
      <trkpt lat="59.45320310559" lon="17.968832654495">
        <ele>33.6</ele>
        <time>2019-09-28T11:29:09Z</time>
      </trkpt>
      <trkpt lat="59.45312096297" lon="17.968844221517">
        <ele>32.4</ele>
        <time>2019-09-28T11:29:12Z</time>
      </trkpt>
      <trkpt lat="59.452928346908" lon="17.968833660323">
        <ele>31.6</ele>
        <time>2019-09-28T11:29:18Z</time>
      </trkpt>
      <trkpt lat="59.452902363018" lon="17.968838773282">
        <ele>31.2</ele>
        <time>2019-09-28T11:29:19Z</time>
      </trkpt>
      <trkpt lat="59.452768336437" lon="17.96889342327">
        <ele>30</ele>
        <time>2019-09-28T11:29:24Z</time>
      </trkpt>
      <trkpt lat="59.452682673419" lon="17.96896131666">
        <ele>29</ele>
        <time>2019-09-28T11:29:28Z</time>
      </trkpt>
      <trkpt lat="59.452640261005" lon="17.969004818721">
        <ele>28.6</ele>
        <time>2019-09-28T11:29:30Z</time>
      </trkpt>
      <trkpt lat="59.452454434282" lon="17.969137168922">
        <ele>27.8</ele>
        <time>2019-09-28T11:29:37Z</time>
      </trkpt>
      <trkpt lat="59.452257040537" lon="17.969259293205">
        <ele>26.8</ele>
        <time>2019-09-28T11:29:44Z</time>
      </trkpt>
      <trkpt lat="59.452047325399" lon="17.969342525472">
        <ele>26</ele>
        <time>2019-09-28T11:29:50Z</time>
      </trkpt>
      <trkpt lat="59.451953867214" lon="17.969393152148">
        <ele>25.6</ele>
        <time>2019-09-28T11:29:53Z</time>
      </trkpt>
      <trkpt lat="59.451749348854" lon="17.969493064396">
        <ele>25.2</ele>
        <time>2019-09-28T11:29:58Z</time>
      </trkpt>
      <trkpt lat="59.451546758331" lon="17.969563220899">
        <ele>25</ele>
        <time>2019-09-28T11:30:04Z</time>
      </trkpt>
      <trkpt lat="59.451426394247" lon="17.969562047433">
        <ele>24.6</ele>
        <time>2019-09-28T11:30:08Z</time>
      </trkpt>
      <trkpt lat="59.45128951782" lon="17.96955391699">
        <ele>24</ele>
        <time>2019-09-28T11:30:13Z</time>
      </trkpt>
    </trkseg>
  </trk>
</gpx>